createdAt,value
2019-03-20T00:00:38.714Z,64.77
2019-03-20T00:03:08.209Z,62.90
2019-03-20T00:05:37.708Z,69.87
2019-03-20T00:08:07.226Z,55.90
2019-03-20T00:10:37.692Z,63.47
2019-03-20T00:13:07.221Z,59.47
2019-03-20T00:15:37.005Z,58.20
2019-03-20T00:18:06.503Z,65.50
2019-03-20T00:20:36.029Z,68.80
2019-03-20T00:23:05.520Z,51.83
2019-03-20T00:25:35.024Z,53.93
2019-03-20T00:28:04.638Z,53.23
2019-03-20T00:30:34.128Z,39.97
2019-03-20T00:33:03.656Z,54.73
2019-03-20T00:35:33.166Z,40.63
2019-03-20T00:38:03.214Z,40.30
2019-03-20T00:40:32.694Z,41.07
2019-03-20T00:43:02.195Z,41.27
2019-03-20T00:45:31.721Z,35.10
2019-03-20T00:48:01.213Z,36.13
2019-03-20T00:50:30.709Z,58.13
2019-03-20T00:53:00.233Z,72.17
2019-03-20T00:55:29.729Z,86.10
2019-03-20T00:57:59.220Z,107.93
2019-03-20T01:00:29.335Z,112.13
2019-03-20T01:02:58.840Z,92.90
2019-03-20T01:05:28.411Z,98.50
2019-03-20T01:07:57.958Z,73.27
2019-03-20T01:10:27.462Z,65.57
2019-03-20T01:12:56.965Z,66.57
2019-03-20T01:15:26.567Z,51.90
2019-03-20T01:17:56.070Z,54.10
2019-03-20T01:20:25.669Z,57.83
2019-03-20T01:22:55.320Z,67.10
2019-03-20T01:25:24.973Z,58.40
2019-03-20T01:27:54.472Z,64.43
2019-03-20T01:30:34.021Z,53.23
2019-03-20T01:33:13.480Z,59.17
2019-03-20T01:35:43.108Z,69.20
2019-03-20T01:38:12.664Z,50.37
2019-03-20T01:40:43.141Z,51.83
2019-03-20T01:43:12.673Z,51.20
2019-03-20T01:45:42.374Z,49.53
2019-03-20T01:48:11.865Z,47.87
2019-03-20T01:50:41.417Z,55.83
2019-03-20T01:53:10.904Z,49.27
2019-03-20T01:55:40.405Z,46.10
2019-03-20T01:58:09.926Z,52.40
2019-03-20T02:00:39.423Z,43.30
2019-03-20T02:03:08.943Z,35.67
2019-03-20T02:05:38.453Z,52.30
2019-03-20T02:08:07.983Z,45.03
2019-03-20T02:10:37.472Z,41.97
2019-03-20T02:13:07.010Z,38.00
2019-03-20T02:15:39.342Z,47.90
2019-03-20T02:18:07.723Z,40.83
2019-03-20T02:20:37.248Z,45.03
2019-03-20T02:23:06.776Z,44.20
2019-03-20T02:25:36.269Z,41.93
2019-03-20T02:28:05.756Z,37.23
2019-03-20T02:30:35.287Z,36.33
2019-03-20T02:33:04.946Z,44.90
2019-03-20T02:35:34.457Z,35.17
2019-03-20T02:38:04.054Z,35.90
2019-03-20T02:40:33.573Z,33.07
2019-03-20T02:43:03.068Z,41.57
2019-03-20T02:45:32.580Z,34.10
2019-03-20T02:48:02.102Z,37.50
2019-03-20T02:50:31.605Z,43.60
2019-03-20T02:53:01.211Z,36.90
2019-03-20T02:55:30.789Z,35.83
2019-03-20T02:58:00.420Z,38.57
2019-03-20T03:00:29.967Z,26.60
2019-03-20T03:02:59.521Z,41.47
2019-03-20T03:05:29.019Z,30.53
2019-03-20T03:07:58.534Z,41.63
2019-03-20T03:10:29.058Z,32.00
2019-03-20T03:12:58.550Z,37.80
2019-03-20T03:15:28.062Z,32.90
2019-03-20T03:17:57.574Z,31.03
2019-03-20T03:20:27.075Z,41.93
2019-03-20T03:22:56.597Z,44.20
2019-03-20T03:25:26.089Z,36.43
2019-03-20T03:27:55.608Z,33.20
2019-03-20T03:30:25.978Z,36.33
2019-03-20T03:32:55.510Z,37.30
2019-03-20T03:35:25.065Z,34.03
2019-03-20T03:37:56.258Z,34.50
2019-03-20T03:40:25.847Z,36.87
2019-03-20T03:42:55.442Z,28.97
2019-03-20T03:45:24.976Z,44.53
2019-03-20T03:47:54.495Z,36.00
2019-03-20T03:50:24.015Z,39.03
2019-03-20T03:52:53.534Z,38.83
2019-03-20T03:55:23.097Z,42.63
2019-03-20T03:57:52.657Z,43.47
2019-03-20T04:00:22.335Z,31.60
2019-03-20T04:02:51.971Z,36.87
2019-03-20T04:05:21.512Z,29.57
2019-03-20T04:07:51.032Z,44.30
2019-03-20T04:10:20.626Z,31.43
2019-03-20T04:12:50.142Z,32.80
2019-03-20T04:15:19.776Z,32.57
2019-03-20T04:17:50.217Z,34.63
2019-03-20T04:20:20.948Z,37.00
2019-03-20T04:22:50.480Z,29.03
2019-03-20T04:25:19.970Z,44.83
2019-03-20T04:27:49.501Z,36.77
2019-03-20T04:30:19.665Z,31.97
2019-03-20T04:32:49.161Z,39.13
2019-03-20T04:35:18.689Z,37.10
2019-03-20T04:37:48.193Z,43.00
2019-03-20T04:40:18.433Z,35.63
2019-03-20T04:42:48.024Z,31.97
2019-03-20T04:45:17.677Z,40.43
2019-03-20T04:47:47.160Z,37.30
2019-03-20T04:50:17.263Z,39.80
2019-03-20T04:52:46.757Z,36.03
2019-03-20T04:55:16.421Z,42.03
2019-03-20T04:57:46.206Z,40.87
2019-03-20T05:00:19.725Z,46.30
2019-03-20T05:02:49.223Z,45.73
2019-03-20T05:05:18.814Z,36.23
2019-03-20T05:07:48.295Z,30.57
2019-03-20T05:10:18.905Z,31.10
2019-03-20T05:12:48.419Z,38.73
2019-03-20T05:15:17.936Z,26.83
2019-03-20T05:17:47.462Z,28.27
2019-03-20T05:20:18.959Z,28.17
2019-03-20T05:22:48.441Z,32.93
2019-03-20T05:25:18.048Z,34.07
2019-03-20T05:27:47.528Z,34.20
2019-03-20T05:30:17.105Z,32.40
2019-03-20T05:32:46.613Z,32.20
2019-03-20T05:35:16.274Z,37.90
2019-03-20T05:37:45.842Z,31.67
2019-03-20T05:40:17.531Z,33.10
2019-03-20T05:42:47.103Z,33.93
2019-03-20T05:45:19.713Z,33.13
2019-03-20T05:47:49.235Z,34.83
2019-03-20T05:50:18.796Z,24.80
2019-03-20T05:52:48.451Z,34.13
2019-03-20T05:55:17.977Z,26.80
2019-03-20T05:57:47.474Z,32.40
2019-03-20T06:00:21.791Z,30.13
2019-03-20T06:02:51.312Z,27.00
2019-03-20T06:05:20.805Z,28.57
2019-03-20T06:07:50.328Z,28.37
2019-03-20T06:10:20.778Z,39.60
2019-03-20T06:12:50.445Z,33.50
2019-03-20T06:15:19.971Z,26.00
2019-03-20T06:17:49.458Z,31.23
2019-03-20T06:20:18.981Z,28.17
2019-03-20T06:22:48.477Z,37.73
2019-03-20T06:25:21.150Z,32.00
2019-03-20T06:27:49.205Z,30.50
2019-03-20T06:30:19.541Z,30.23
2019-03-20T06:32:49.023Z,29.93
2019-03-20T06:35:18.733Z,26.83
2019-03-20T06:37:48.272Z,25.93
2019-03-20T06:40:18.155Z,32.43
2019-03-20T06:42:47.664Z,29.63
2019-03-20T06:45:19.191Z,28.20
2019-03-20T06:47:48.688Z,36.33
2019-03-20T06:50:19.134Z,27.20
2019-03-20T06:52:48.658Z,25.20
2019-03-20T06:55:18.221Z,28.00
2019-03-20T06:57:47.732Z,27.13
2019-03-20T07:00:41.122Z,36.63
2019-03-20T07:03:43.457Z,31.13
2019-03-20T07:06:34.200Z,28.27
2019-03-20T07:09:18.480Z,24.00
2019-03-20T07:11:48.005Z,33.27
2019-03-20T07:14:17.492Z,23.80
2019-03-20T07:16:46.998Z,24.97
2019-03-20T07:19:16.518Z,30.93
2019-03-20T07:21:46.013Z,24.30
2019-03-20T07:24:15.532Z,23.40
2019-03-20T07:26:45.399Z,27.47
2019-03-20T07:29:14.903Z,28.50
2019-03-20T07:31:44.426Z,22.80
2019-03-20T07:34:14.492Z,29.60
2019-03-20T07:36:43.998Z,24.73
2019-03-20T07:39:13.506Z,23.60
2019-03-20T07:41:43.009Z,23.07
2019-03-20T07:44:12.504Z,20.63
2019-03-20T07:46:42.089Z,22.30
2019-03-20T07:49:11.584Z,24.23
2019-03-20T07:51:41.087Z,28.80
2019-03-20T07:54:10.610Z,27.50
2019-03-20T07:56:40.112Z,22.53
2019-03-20T07:59:09.614Z,29.33
2019-03-20T08:01:39.133Z,37.33
2019-03-20T08:04:08.625Z,22.73
2019-03-20T08:06:38.144Z,30.37
2019-03-20T08:09:08.003Z,25.63
2019-03-20T08:11:37.497Z,23.60
2019-03-20T08:14:07.038Z,27.63
2019-03-20T08:16:36.551Z,26.87
2019-03-20T08:19:06.076Z,20.90
2019-03-20T08:21:35.589Z,22.77
2019-03-20T08:24:05.190Z,23.20
2019-03-20T08:26:34.703Z,24.57
2019-03-20T08:29:04.269Z,27.27
2019-03-20T08:31:34.157Z,26.43
2019-03-20T08:34:04.119Z,22.43
2019-03-20T08:36:33.630Z,24.47
2019-03-20T08:39:04.592Z,28.13
2019-03-20T08:41:34.107Z,23.80
2019-03-20T08:44:03.762Z,30.40
2019-03-20T08:46:33.276Z,26.97
2019-03-20T08:49:02.888Z,22.73
2019-03-20T08:51:32.383Z,26.57
2019-03-20T08:54:01.873Z,29.20
2019-03-20T08:56:31.670Z,21.67
2019-03-20T08:59:02.107Z,21.97
2019-03-20T09:01:31.617Z,23.10
2019-03-20T09:04:01.113Z,29.33
2019-03-20T09:06:30.624Z,27.53
2019-03-20T09:09:00.120Z,24.10
2019-03-20T09:11:29.644Z,25.40
2019-03-20T09:13:59.145Z,29.43
2019-03-20T09:16:29.660Z,27.80
2019-03-20T09:18:59.191Z,21.77
2019-03-20T09:21:28.684Z,22.60
2019-03-20T09:23:58.178Z,28.13
2019-03-20T09:26:27.732Z,21.50
2019-03-20T09:28:57.246Z,18.37
2019-03-20T09:31:26.745Z,23.77
2019-03-20T09:33:56.354Z,27.70
2019-03-20T09:36:25.866Z,19.43
2019-03-20T09:38:55.375Z,24.40
2019-03-20T09:41:24.903Z,23.27
2019-03-20T09:43:54.414Z,20.37
2019-03-20T09:46:23.918Z,21.17
2019-03-20T09:48:53.452Z,21.20
2019-03-20T09:51:22.941Z,17.53
2019-03-20T09:53:52.569Z,20.60
2019-03-20T09:56:22.094Z,18.47
2019-03-20T09:58:51.627Z,23.90
2019-03-20T10:01:21.155Z,21.57
2019-03-20T10:03:50.731Z,20.80
2019-03-20T10:06:20.260Z,22.83
2019-03-20T10:08:54.050Z,23.17
2019-03-20T10:11:20.982Z,22.20
2019-03-20T10:13:50.534Z,20.73
2019-03-20T10:16:20.041Z,20.77
2019-03-20T10:18:49.537Z,22.30
2019-03-20T10:21:19.080Z,20.97
2019-03-20T10:23:48.574Z,19.43
2019-03-20T10:26:18.079Z,18.13
2019-03-20T10:28:47.630Z,26.43
2019-03-20T10:31:17.122Z,25.80
2019-03-20T10:33:47.626Z,18.57
2019-03-20T10:36:17.217Z,19.33
2019-03-20T10:38:48.723Z,22.30
2019-03-20T10:41:18.353Z,23.97
2019-03-20T10:43:47.897Z,19.60
2019-03-20T10:46:17.419Z,17.40
2019-03-20T10:48:46.926Z,19.07
2019-03-20T10:51:16.436Z,16.30
2019-03-20T10:53:46.866Z,21.03
2019-03-20T10:56:16.370Z,19.83
2019-03-20T10:58:45.906Z,16.47
2019-03-20T11:01:15.411Z,18.63
2019-03-20T11:03:44.942Z,19.70
2019-03-20T11:06:14.984Z,19.10
2019-03-20T11:08:44.538Z,13.40
2019-03-20T11:11:14.041Z,21.40
2019-03-20T11:13:43.613Z,20.47
2019-03-20T11:16:13.502Z,12.07
2019-03-20T11:18:43.001Z,18.33
2019-03-20T11:21:12.509Z,21.53
2019-03-20T11:23:42.070Z,16.53
2019-03-20T11:26:11.584Z,18.97
2019-03-20T11:28:41.323Z,21.67
2019-03-20T11:31:10.866Z,18.40
2019-03-20T11:33:40.396Z,17.77
2019-03-20T11:36:09.920Z,18.77
2019-03-20T11:38:39.416Z,13.17
2019-03-20T11:41:08.904Z,19.90
2019-03-20T11:43:39.434Z,17.43
2019-03-20T11:46:09.131Z,22.77
2019-03-20T11:48:38.666Z,18.97
2019-03-20T11:51:08.351Z,17.13
2019-03-20T11:53:37.891Z,19.97
2019-03-20T11:56:07.418Z,14.53
2019-03-20T11:58:36.960Z,16.40
2019-03-20T12:01:06.492Z,17.63
2019-03-20T12:03:36.026Z,12.30
2019-03-20T12:06:05.603Z,17.77
2019-03-20T12:08:35.543Z,17.80
2019-03-20T12:11:05.051Z,13.50
2019-03-20T12:13:34.584Z,12.43
2019-03-20T12:16:04.257Z,12.50
2019-03-20T12:18:33.761Z,14.20
2019-03-20T12:21:03.461Z,13.57
2019-03-20T12:23:33.862Z,10.67
2019-03-20T12:26:03.560Z,15.00
2019-03-20T12:28:33.073Z,9.50
2019-03-20T12:31:02.643Z,12.30
2019-03-20T12:33:32.208Z,12.37
2019-03-20T12:36:01.737Z,13.17
2019-03-20T12:38:31.268Z,11.40
2019-03-20T12:41:00.957Z,14.17
2019-03-20T12:43:30.515Z,15.30
2019-03-20T12:46:00.088Z,13.20
2019-03-20T12:48:29.617Z,16.90
2019-03-20T12:50:59.143Z,23.03
2019-03-20T12:53:35.788Z,13.90
2019-03-20T12:56:05.578Z,14.67
2019-03-20T12:58:35.071Z,13.13
2019-03-20T13:01:05.400Z,15.30
2019-03-20T13:03:34.929Z,13.83
2019-03-20T13:06:04.427Z,17.13
2019-03-20T13:08:33.946Z,19.30
2019-03-20T13:11:03.515Z,11.80
2019-03-20T13:13:33.089Z,12.60
2019-03-20T13:16:02.646Z,17.17
2019-03-20T13:18:32.143Z,13.23
2019-03-20T13:21:01.706Z,14.63
2019-03-20T13:23:36.369Z,16.67
2019-03-20T13:26:06.006Z,15.77
2019-03-20T13:28:35.551Z,19.83
2019-03-20T13:31:17.309Z,19.40
2019-03-20T13:33:49.054Z,20.00
2019-03-20T13:36:18.122Z,18.47
2019-03-20T13:38:47.821Z,15.37
2019-03-20T13:41:17.329Z,20.70
2019-03-20T13:43:46.829Z,18.87
2019-03-20T13:46:16.536Z,20.30
2019-03-20T13:48:46.043Z,24.07
2019-03-20T13:51:15.543Z,20.33
2019-03-20T13:53:45.079Z,22.17
2019-03-20T13:56:14.573Z,17.67
2019-03-20T13:58:44.076Z,19.27
2019-03-20T14:01:13.587Z,21.30
2019-03-20T14:03:43.092Z,19.30
2019-03-20T14:06:12.609Z,16.53
2019-03-20T14:08:42.210Z,24.50
2019-03-20T14:11:11.709Z,19.97
2019-03-20T14:13:41.243Z,24.97
2019-03-20T14:16:10.793Z,19.70
2019-03-20T14:18:40.293Z,21.40
2019-03-20T14:21:09.842Z,25.13
2019-03-20T14:23:39.343Z,17.20
2019-03-20T14:26:08.840Z,22.27
2019-03-20T14:28:38.382Z,26.43
2019-03-20T14:31:07.885Z,20.60
2019-03-20T14:33:37.372Z,19.87
2019-03-20T14:36:06.922Z,17.90
2019-03-20T14:38:36.433Z,17.57
2019-03-20T14:41:05.924Z,21.73
2019-03-20T14:43:35.453Z,22.63
2019-03-20T14:46:05.045Z,21.47
2019-03-20T14:48:34.544Z,22.83
2019-03-20T14:51:04.129Z,18.77
2019-03-20T14:53:33.633Z,24.00
2019-03-20T14:56:03.160Z,14.80
2019-03-20T14:58:32.666Z,17.03
2019-03-20T15:01:02.160Z,21.53
2019-03-20T15:03:31.688Z,19.93
2019-03-20T15:06:01.215Z,17.40
2019-03-20T15:08:30.724Z,20.60
2019-03-20T15:11:00.276Z,17.23
2019-03-20T15:13:29.782Z,18.03
2019-03-20T15:16:05.372Z,17.00
2019-03-20T15:18:35.079Z,22.87
2019-03-20T15:21:04.587Z,19.50
2019-03-20T15:23:34.085Z,22.30
2019-03-20T15:26:03.612Z,19.10
2019-03-20T15:28:33.132Z,19.50
2019-03-20T15:31:02.643Z,19.80
2019-03-20T15:33:32.190Z,22.47
2019-03-20T15:36:01.700Z,20.43
2019-03-20T15:38:31.190Z,20.33
2019-03-20T15:41:00.722Z,18.93
2019-03-20T15:43:30.222Z,17.10
2019-03-20T15:45:59.731Z,22.33
2019-03-20T15:48:29.752Z,16.43
2019-03-20T15:50:59.330Z,22.50
2019-03-20T15:53:28.842Z,24.43
2019-03-20T15:55:58.341Z,19.37
2019-03-20T15:58:27.878Z,17.60
2019-03-20T16:00:57.376Z,19.00
2019-03-20T16:03:33.332Z,17.97
2019-03-20T16:06:02.850Z,26.10
2019-03-20T16:08:32.370Z,16.70
2019-03-20T16:11:06.641Z,18.43
2019-03-20T16:13:33.115Z,26.07
2019-03-20T16:16:02.625Z,26.83
2019-03-20T16:18:32.187Z,19.97
2019-03-20T16:21:01.684Z,20.23
2019-03-20T16:23:31.359Z,27.00
2019-03-20T16:26:02.636Z,21.80
2019-03-20T16:28:32.153Z,15.50
2019-03-20T16:31:01.845Z,24.07
2019-03-20T16:33:31.411Z,21.00
2019-03-20T16:36:00.913Z,19.40
2019-03-20T16:38:30.458Z,24.40
2019-03-20T16:40:59.951Z,18.10
2019-03-20T16:43:29.552Z,25.23
2019-03-20T16:45:59.057Z,19.57
2019-03-20T16:48:28.564Z,20.33
2019-03-20T16:50:58.090Z,21.37
2019-03-20T16:53:27.599Z,24.43
2019-03-20T16:55:57.106Z,21.90
2019-03-20T16:58:26.638Z,22.37
2019-03-20T17:00:56.173Z,20.53
2019-03-20T17:03:25.672Z,21.27
2019-03-20T17:05:55.217Z,25.40
2019-03-20T17:08:24.770Z,16.33
2019-03-20T17:10:54.257Z,19.10
2019-03-20T17:13:23.764Z,18.33
2019-03-20T17:15:53.289Z,24.33
2019-03-20T17:18:22.833Z,22.60
2019-03-20T17:20:52.345Z,17.53
2019-03-20T17:23:21.854Z,20.83
2019-03-20T17:25:51.384Z,22.23
2019-03-20T17:28:20.893Z,19.20
2019-03-20T17:30:52.427Z,23.20
2019-03-20T17:33:22.275Z,26.80
2019-03-20T17:35:51.840Z,24.90
2019-03-20T17:38:21.345Z,19.20
2019-03-20T17:40:50.949Z,20.93
2019-03-20T17:43:20.479Z,23.07
2019-03-20T17:45:49.987Z,20.60
2019-03-20T17:48:19.484Z,25.97
2019-03-20T17:50:49.018Z,20.20
2019-03-20T17:53:18.523Z,26.70
2019-03-20T17:55:48.058Z,22.43
2019-03-20T17:58:17.549Z,22.83
2019-03-20T18:00:51.150Z,42.73
2019-03-20T18:03:20.721Z,28.13
2019-03-20T18:05:50.357Z,26.70
2019-03-20T18:08:19.866Z,23.20
2019-03-20T18:10:49.346Z,20.53
2019-03-20T18:13:18.877Z,25.20
2019-03-20T18:15:48.377Z,20.60
2019-03-20T18:18:17.894Z,24.33
2019-03-20T18:20:47.474Z,32.40
2019-03-20T18:23:16.994Z,24.00
2019-03-20T18:25:46.590Z,26.30
2019-03-20T18:28:16.097Z,26.27
2019-03-20T18:30:45.672Z,21.77
2019-03-20T18:33:15.214Z,26.73
2019-03-20T18:35:44.713Z,25.50
2019-03-20T18:38:14.302Z,22.70
2019-03-20T18:40:43.828Z,20.77
2019-03-20T18:43:13.417Z,20.57
2019-03-20T18:45:42.916Z,20.37
2019-03-20T18:48:12.441Z,22.43
2019-03-20T18:50:41.985Z,22.23
2019-03-20T18:53:11.514Z,24.40
2019-03-20T18:55:41.196Z,24.83
2019-03-20T18:58:10.709Z,29.40
2019-03-20T19:00:40.211Z,26.07
2019-03-20T19:03:18.218Z,24.33
2019-03-20T19:05:53.795Z,18.77
2019-03-20T19:08:23.413Z,22.83
2019-03-20T19:10:53.092Z,20.87
2019-03-20T19:13:24.461Z,25.17
2019-03-20T19:15:53.876Z,26.33
2019-03-20T19:18:23.489Z,30.17
2019-03-20T19:20:53.056Z,22.90
2019-03-20T19:23:22.590Z,23.97
2019-03-20T19:25:52.123Z,23.20
2019-03-20T19:28:21.705Z,24.83
2019-03-20T19:30:51.290Z,24.60
2019-03-20T19:33:20.871Z,27.80
2019-03-20T19:35:50.370Z,21.20
2019-03-20T19:38:20.134Z,28.90
2019-03-20T19:40:49.632Z,26.87
2019-03-20T19:43:19.122Z,27.17
2019-03-20T19:45:48.665Z,24.03
2019-03-20T19:48:18.172Z,23.97
2019-03-20T19:50:47.702Z,29.50
2019-03-20T19:53:17.242Z,27.60
2019-03-20T19:55:46.770Z,23.30
2019-03-20T19:58:16.298Z,25.67
2019-03-20T20:00:45.826Z,24.10
2019-03-20T20:03:15.338Z,26.90
2019-03-20T20:05:44.884Z,25.63
2019-03-20T20:08:14.386Z,28.03
2019-03-20T20:10:43.992Z,25.33
2019-03-20T20:13:13.488Z,26.23
2019-03-20T20:15:43.310Z,28.93
2019-03-20T20:18:12.806Z,22.93
2019-03-20T20:20:42.355Z,30.10
2019-03-20T20:23:11.910Z,24.10
2019-03-20T20:25:41.593Z,27.23
2019-03-20T20:28:11.597Z,28.63
2019-03-20T20:30:41.249Z,24.83
2019-03-20T20:33:10.755Z,33.40
2019-03-20T20:35:40.262Z,23.10
2019-03-20T20:38:09.809Z,26.47
2019-03-20T20:40:39.305Z,26.03
2019-03-20T20:43:08.792Z,25.00
2019-03-20T20:45:38.325Z,27.60
2019-03-20T20:48:07.858Z,21.30
2019-03-20T20:50:37.379Z,23.17
2019-03-20T20:53:07.081Z,23.90
2019-03-20T20:55:36.637Z,28.70
2019-03-20T20:58:06.136Z,22.77
2019-03-20T21:00:35.666Z,26.13
2019-03-20T21:03:05.238Z,25.43
2019-03-20T21:05:34.750Z,22.87
2019-03-20T21:08:04.289Z,22.63
2019-03-20T21:10:33.965Z,27.57
2019-03-20T21:13:03.568Z,23.83
2019-03-20T21:15:41.536Z,34.40
2019-03-20T21:18:33.330Z,36.00
2019-03-20T21:21:04.251Z,24.43
2019-03-20T21:23:39.762Z,22.60
2019-03-20T21:26:15.172Z,28.27
2019-03-20T21:29:22.053Z,23.17
2019-03-20T21:32:06.401Z,22.67
2019-03-20T21:34:58.435Z,25.17
2019-03-20T21:37:51.829Z,27.80
2019-03-20T21:40:21.497Z,27.10
2019-03-20T21:43:13.440Z,28.50
2019-03-20T21:46:05.165Z,27.77
2019-03-20T21:48:34.794Z,22.80
2019-03-20T21:51:14.016Z,27.20
2019-03-20T21:54:04.656Z,23.83
2019-03-20T21:57:06.618Z,28.13
2019-03-20T21:59:59.988Z,22.10
2019-03-20T22:02:43.759Z,21.83
2019-03-20T22:05:23.265Z,26.80
2019-03-20T22:07:53.042Z,27.60
2019-03-20T22:10:28.411Z,24.10
2019-03-20T22:13:19.135Z,30.37
2019-03-20T22:15:54.750Z,22.93
2019-03-20T22:19:00.215Z,25.17
2019-03-20T22:21:41.928Z,24.43
2019-03-20T22:24:39.882Z,20.77
2019-03-20T22:27:34.608Z,26.00
2019-03-20T22:30:06.299Z,22.23
2019-03-20T22:32:56.954Z,30.50
2019-03-20T22:35:29.719Z,26.70
2019-03-20T22:38:00.586Z,23.33
2019-03-20T22:40:52.410Z,25.90
2019-03-20T22:43:30.540Z,27.33
2019-03-20T22:46:22.863Z,23.10
2019-03-20T22:48:58.304Z,24.10
2019-03-20T22:51:45.675Z,24.60
2019-03-20T22:54:46.522Z,25.07
2019-03-20T22:57:31.104Z,25.83
2019-03-20T23:00:00.619Z,21.07
2019-03-20T23:02:55.794Z,22.10
2019-03-20T23:05:25.331Z,24.50
2019-03-20T23:07:54.854Z,24.90
2019-03-20T23:10:24.462Z,23.50
2019-03-20T23:12:53.989Z,28.20
2019-03-20T23:15:23.573Z,27.70
2019-03-20T23:17:53.111Z,24.33
2019-03-20T23:20:25.655Z,23.20
2019-03-20T23:22:55.223Z,23.43
2019-03-20T23:25:24.734Z,28.90
2019-03-20T23:27:54.259Z,30.23
2019-03-20T23:30:26.916Z,29.17
2019-03-20T23:32:56.444Z,24.40
2019-03-20T23:35:25.985Z,27.87
2019-03-20T23:37:55.561Z,30.50
2019-03-20T23:40:25.089Z,23.80
2019-03-20T23:42:57.549Z,24.07
2019-03-20T23:45:27.065Z,31.67
2019-03-20T23:48:02.181Z,25.33
2019-03-20T23:50:31.806Z,25.07
2019-03-20T23:53:01.345Z,27.23
2019-03-20T23:55:30.881Z,25.20
2019-03-20T23:58:00.433Z,30.07
